sensor_id;sensor_type;location;lat;lon;timestamp;P1;durP1;ratioP1;P2;durP2;ratioP2
26413;SDS011;14108;53.668;10.288;2022-11-20T00:02:12;7.53;;;5.37;;
26413;SDS011;14108;53.668;10.288;2022-11-20T00:04:40;9.30;;;5.22;;
26413;SDS011;14108;53.668;10.288;2022-11-20T00:07:07;9.38;;;5.32;;
26413;SDS011;14108;53.668;10.288;2022-11-20T00:09:34;8.50;;;5.45;;
26413;SDS011;14108;53.668;10.288;2022-11-20T00:12:01;8.98;;;5.05;;
26413;SDS011;14108;53.668;10.288;2022-11-20T00:14:29;7.72;;;4.70;;
26413;SDS011;14108;53.668;10.288;2022-11-20T00:16:56;9.00;;;5.57;;
26413;SDS011;14108;53.668;10.288;2022-11-20T00:19:23;7.60;;;4.65;;
26413;SDS011;14108;53.668;10.288;2022-11-20T00:21:50;7.43;;;4.75;;
26413;SDS011;14108;53.668;10.288;2022-11-20T00:24:19;10.00;;;5.28;;
26413;SDS011;14108;53.668;10.288;2022-11-20T00:26:46;7.72;;;5.12;;
26413;SDS011;14108;53.668;10.288;2022-11-20T00:29:13;8.45;;;4.53;;
26413;SDS011;14108;53.668;10.288;2022-11-20T00:31:41;7.07;;;4.90;;
26413;SDS011;14108;53.668;10.288;2022-11-20T00:34:08;7.32;;;5.03;;
26413;SDS011;14108;53.668;10.288;2022-11-20T00:36:36;7.35;;;4.47;;
26413;SDS011;14108;53.668;10.288;2022-11-20T00:39:03;11.40;;;5.32;;
26413;SDS011;14108;53.668;10.288;2022-11-20T00:41:30;6.28;;;5.10;;
26413;SDS011;14108;53.668;10.288;2022-11-20T00:43:57;9.65;;;5.47;;
26413;SDS011;14108;53.668;10.288;2022-11-20T00:46:25;7.75;;;5.32;;
26413;SDS011;14108;53.668;10.288;2022-11-20T00:48:53;7.32;;;4.80;;
26413;SDS011;14108;53.668;10.288;2022-11-20T00:51:22;12.60;;;5.47;;
26413;SDS011;14108;53.668;10.288;2022-11-20T00:53:50;8.02;;;5.20;;
26413;SDS011;14108;53.668;10.288;2022-11-20T00:56:18;6.40;;;4.72;;
26413;SDS011;14108;53.668;10.288;2022-11-20T00:58:46;8.38;;;4.65;;
26413;SDS011;14108;53.668;10.288;2022-11-20T01:01:15;13.43;;;5.62;;
26413;SDS011;14108;53.668;10.288;2022-11-20T01:03:44;7.37;;;4.68;;
26413;SDS011;14108;53.668;10.288;2022-11-20T01:06:12;7.40;;;4.45;;
26413;SDS011;14108;53.668;10.288;2022-11-20T01:08:41;9.02;;;5.68;;
26413;SDS011;14108;53.668;10.288;2022-11-20T01:11:10;9.43;;;5.55;;
26413;SDS011;14108;53.668;10.288;2022-11-20T01:13:38;7.47;;;4.97;;
26413;SDS011;14108;53.668;10.288;2022-11-20T01:16:07;9.57;;;5.95;;
26413;SDS011;14108;53.668;10.288;2022-11-20T01:18:35;8.27;;;5.65;;
26413;SDS011;14108;53.668;10.288;2022-11-20T01:21:05;7.37;;;5.30;;
26413;SDS011;14108;53.668;10.288;2022-11-20T01:23:34;7.60;;;5.30;;
26413;SDS011;14108;53.668;10.288;2022-11-20T01:26:03;9.63;;;5.60;;
26413;SDS011;14108;53.668;10.288;2022-11-20T01:28:32;7.60;;;5.03;;
26413;SDS011;14108;53.668;10.288;2022-11-20T01:31:00;8.95;;;5.45;;
26413;SDS011;14108;53.668;10.288;2022-11-20T01:33:27;8.93;;;5.60;;
26413;SDS011;14108;53.668;10.288;2022-11-20T01:36:02;8.93;;;5.28;;
26413;SDS011;14108;53.668;10.288;2022-11-20T01:38:31;10.90;;;5.40;;
26413;SDS011;14108;53.668;10.288;2022-11-20T01:40:58;8.57;;;5.23;;
26413;SDS011;14108;53.668;10.288;2022-11-20T01:43:26;8.57;;;5.65;;
26413;SDS011;14108;53.668;10.288;2022-11-20T01:46:04;10.05;;;5.20;;
26413;SDS011;14108;53.668;10.288;2022-11-20T01:48:40;7.47;;;5.18;;
26413;SDS011;14108;53.668;10.288;2022-11-20T01:51:17;9.07;;;5.30;;
26413;SDS011;14108;53.668;10.288;2022-11-20T01:53:49;7.78;;;4.68;;
26413;SDS011;14108;53.668;10.288;2022-11-20T01:56:19;12.20;;;5.70;;
26413;SDS011;14108;53.668;10.288;2022-11-20T01:58:50;10.43;;;6.53;;
26413;SDS011;14108;53.668;10.288;2022-11-20T02:01:20;8.88;;;5.53;;
26413;SDS011;14108;53.668;10.288;2022-11-20T02:03:47;5.95;;;4.80;;
26413;SDS011;14108;53.668;10.288;2022-11-20T02:06:16;8.88;;;5.03;;
26413;SDS011;14108;53.668;10.288;2022-11-20T02:08:48;8.73;;;5.60;;
26413;SDS011;14108;53.668;10.288;2022-11-20T02:11:16;7.45;;;5.32;;
26413;SDS011;14108;53.668;10.288;2022-11-20T02:13:43;7.12;;;5.28;;
26413;SDS011;14108;53.668;10.288;2022-11-20T02:16:15;8.18;;;5.75;;
26413;SDS011;14108;53.668;10.288;2022-11-20T02:18:45;8.48;;;5.70;;
26413;SDS011;14108;53.668;10.288;2022-11-20T02:21:23;9.93;;;5.12;;
26413;SDS011;14108;53.668;10.288;2022-11-20T02:23:59;7.90;;;5.22;;
26413;SDS011;14108;53.668;10.288;2022-11-20T02:26:32;9.05;;;5.75;;
26413;SDS011;14108;53.668;10.288;2022-11-20T02:29:03;8.05;;;5.30;;
26413;SDS011;14108;53.668;10.288;2022-11-20T02:31:34;8.07;;;5.50;;
26413;SDS011;14108;53.668;10.288;2022-11-20T02:34:03;8.18;;;5.80;;
26413;SDS011;14108;53.668;10.288;2022-11-20T02:36:30;8.82;;;5.28;;
26413;SDS011;14108;53.668;10.288;2022-11-20T02:39:01;8.07;;;5.75;;
26413;SDS011;14108;53.668;10.288;2022-11-20T02:41:32;6.55;;;4.87;;
26413;SDS011;14108;53.668;10.288;2022-11-20T02:44:01;12.15;;;5.43;;
26413;SDS011;14108;53.668;10.288;2022-11-20T02:46:29;9.68;;;5.80;;
26413;SDS011;14108;53.668;10.288;2022-11-20T02:48:56;10.73;;;6.28;;
26413;SDS011;14108;53.668;10.288;2022-11-20T02:51:23;9.75;;;5.95;;
26413;SDS011;14108;53.668;10.288;2022-11-20T02:53:50;8.55;;;6.00;;
26413;SDS011;14108;53.668;10.288;2022-11-20T02:56:17;9.68;;;5.78;;
26413;SDS011;14108;53.668;10.288;2022-11-20T02:58:45;9.02;;;5.82;;
26413;SDS011;14108;53.668;10.288;2022-11-20T03:01:12;9.13;;;5.87;;
26413;SDS011;14108;53.668;10.288;2022-11-20T03:03:40;11.40;;;6.18;;
26413;SDS011;14108;53.668;10.288;2022-11-20T03:06:07;8.23;;;6.28;;
26413;SDS011;14108;53.668;10.288;2022-11-20T03:08:34;9.50;;;5.72;;
26413;SDS011;14108;53.668;10.288;2022-11-20T03:11:05;8.73;;;5.28;;
26413;SDS011;14108;53.668;10.288;2022-11-20T03:13:34;7.57;;;5.17;;
26413;SDS011;14108;53.668;10.288;2022-11-20T03:16:08;7.45;;;5.30;;
26413;SDS011;14108;53.668;10.288;2022-11-20T03:18:37;9.73;;;5.22;;
26413;SDS011;14108;53.668;10.288;2022-11-20T03:21:05;9.30;;;5.55;;
26413;SDS011;14108;53.668;10.288;2022-11-20T03:23:33;7.25;;;4.95;;
26413;SDS011;14108;53.668;10.288;2022-11-20T03:26:11;7.72;;;5.53;;
26413;SDS011;14108;53.668;10.288;2022-11-20T03:28:40;10.15;;;5.82;;
26413;SDS011;14108;53.668;10.288;2022-11-20T03:31:09;8.73;;;5.22;;
26413;SDS011;14108;53.668;10.288;2022-11-20T03:33:37;8.93;;;5.50;;
26413;SDS011;14108;53.668;10.288;2022-11-20T03:36:06;6.87;;;5.40;;
26413;SDS011;14108;53.668;10.288;2022-11-20T03:38:35;8.27;;;5.20;;
26413;SDS011;14108;53.668;10.288;2022-11-20T03:41:05;6.20;;;5.35;;
26413;SDS011;14108;53.668;10.288;2022-11-20T03:43:33;14.30;;;6.85;;
26413;SDS011;14108;53.668;10.288;2022-11-20T03:46:01;8.00;;;5.55;;
26413;SDS011;14108;53.668;10.288;2022-11-20T03:48:28;7.07;;;5.25;;
26413;SDS011;14108;53.668;10.288;2022-11-20T03:51:06;10.43;;;5.68;;
26413;SDS011;14108;53.668;10.288;2022-11-20T03:53:34;9.15;;;5.50;;
26413;SDS011;14108;53.668;10.288;2022-11-20T03:56:02;12.30;;;6.53;;
26413;SDS011;14108;53.668;10.288;2022-11-20T03:58:30;9.25;;;6.00;;
26413;SDS011;14108;53.668;10.288;2022-11-20T04:00:58;8.57;;;5.22;;
26413;SDS011;14108;53.668;10.288;2022-11-20T04:06:01;11.05;;;5.35;;
26413;SDS011;14108;53.668;10.288;2022-11-20T04:08:29;10.55;;;6.28;;
26413;SDS011;14108;53.668;10.288;2022-11-20T04:10:56;9.85;;;5.97;;
26413;SDS011;14108;53.668;10.288;2022-11-20T04:13:35;7.75;;;5.32;;
26413;SDS011;14108;53.668;10.288;2022-11-20T04:16:02;11.40;;;5.72;;
26413;SDS011;14108;53.668;10.288;2022-11-20T04:18:30;7.57;;;5.62;;
26413;SDS011;14108;53.668;10.288;2022-11-20T04:20:57;7.93;;;5.65;;
26413;SDS011;14108;53.668;10.288;2022-11-20T04:23:25;11.32;;;5.97;;
26413;SDS011;14108;53.668;10.288;2022-11-20T04:25:52;9.00;;;5.93;;
26413;SDS011;14108;53.668;10.288;2022-11-20T04:28:19;6.78;;;4.87;;
26413;SDS011;14108;53.668;10.288;2022-11-20T04:30:47;8.80;;;5.93;;
26413;SDS011;14108;53.668;10.288;2022-11-20T04:33:14;8.57;;;5.45;;
26413;SDS011;14108;53.668;10.288;2022-11-20T04:35:41;10.73;;;6.15;;
26413;SDS011;14108;53.668;10.288;2022-11-20T04:40:44;9.52;;;7.22;;
26413;SDS011;14108;53.668;10.288;2022-11-20T04:43:11;7.55;;;5.97;;
26413;SDS011;14108;53.668;10.288;2022-11-20T04:45:38;8.57;;;5.45;;
26413;SDS011;14108;53.668;10.288;2022-11-20T04:48:05;7.97;;;5.62;;
26413;SDS011;14108;53.668;10.288;2022-11-20T04:50:32;9.73;;;5.87;;
26413;SDS011;14108;53.668;10.288;2022-11-20T04:52:59;11.75;;;5.37;;
26413;SDS011;14108;53.668;10.288;2022-11-20T04:55:26;7.12;;;5.53;;
26413;SDS011;14108;53.668;10.288;2022-11-20T04:57:54;9.45;;;5.03;;
26413;SDS011;14108;53.668;10.288;2022-11-20T05:00:21;7.70;;;5.68;;
26413;SDS011;14108;53.668;10.288;2022-11-20T05:02:48;12.40;;;6.18;;
26413;SDS011;14108;53.668;10.288;2022-11-20T05:05:15;7.55;;;5.60;;
26413;SDS011;14108;53.668;10.288;2022-11-20T05:07:42;7.87;;;5.35;;
26413;SDS011;14108;53.668;10.288;2022-11-20T05:10:09;6.85;;;5.43;;
26413;SDS011;14108;53.668;10.288;2022-11-20T05:12:37;7.68;;;5.18;;
26413;SDS011;14108;53.668;10.288;2022-11-20T05:15:05;8.05;;;5.87;;
26413;SDS011;14108;53.668;10.288;2022-11-20T05:17:35;9.10;;;6.40;;
26413;SDS011;14108;53.668;10.288;2022-11-20T05:20:03;9.13;;;5.57;;
26413;SDS011;14108;53.668;10.288;2022-11-20T05:22:32;10.32;;;6.07;;
26413;SDS011;14108;53.668;10.288;2022-11-20T05:24:59;7.78;;;5.28;;
26413;SDS011;14108;53.668;10.288;2022-11-20T05:27:26;11.70;;;6.53;;
26413;SDS011;14108;53.668;10.288;2022-11-20T05:29:53;10.07;;;6.47;;
26413;SDS011;14108;53.668;10.288;2022-11-20T05:32:20;7.97;;;5.80;;
26413;SDS011;14108;53.668;10.288;2022-11-20T05:34:50;12.65;;;5.93;;
26413;SDS011;14108;53.668;10.288;2022-11-20T05:37:18;6.73;;;5.17;;
26413;SDS011;14108;53.668;10.288;2022-11-20T05:39:45;7.37;;;5.23;;
26413;SDS011;14108;53.668;10.288;2022-11-20T05:42:12;8.18;;;5.87;;
26413;SDS011;14108;53.668;10.288;2022-11-20T05:44:57;8.88;;;6.05;;
26413;SDS011;14108;53.668;10.288;2022-11-20T05:47:25;9.00;;;5.82;;
26413;SDS011;14108;53.668;10.288;2022-11-20T05:49:53;9.13;;;5.40;;
26413;SDS011;14108;53.668;10.288;2022-11-20T05:52:20;7.28;;;5.28;;
26413;SDS011;14108;53.668;10.288;2022-11-20T05:54:47;10.07;;;5.72;;
26413;SDS011;14108;53.668;10.288;2022-11-20T05:57:14;8.63;;;6.18;;
26413;SDS011;14108;53.668;10.288;2022-11-20T05:59:42;9.43;;;6.00;;
26413;SDS011;14108;53.668;10.288;2022-11-20T06:02:09;8.02;;;5.50;;
26413;SDS011;14108;53.668;10.288;2022-11-20T06:04:36;10.35;;;6.10;;
26413;SDS011;14108;53.668;10.288;2022-11-20T06:07:05;9.95;;;5.87;;
26413;SDS011;14108;53.668;10.288;2022-11-20T06:09:32;8.38;;;5.82;;
26413;SDS011;14108;53.668;10.288;2022-11-20T06:11:59;8.75;;;5.87;;
26413;SDS011;14108;53.668;10.288;2022-11-20T06:14:27;8.82;;;5.65;;
26413;SDS011;14108;53.668;10.288;2022-11-20T06:16:54;8.45;;;5.72;;
26413;SDS011;14108;53.668;10.288;2022-11-20T06:19:21;7.25;;;5.47;;
26413;SDS011;14108;53.668;10.288;2022-11-20T06:21:48;10.17;;;5.60;;
26413;SDS011;14108;53.668;10.288;2022-11-20T06:24:16;10.23;;;5.97;;
26413;SDS011;14108;53.668;10.288;2022-11-20T06:26:43;8.68;;;5.60;;
26413;SDS011;14108;53.668;10.288;2022-11-20T06:29:10;10.65;;;5.55;;
26413;SDS011;14108;53.668;10.288;2022-11-20T06:31:38;6.87;;;5.03;;
26413;SDS011;14108;53.668;10.288;2022-11-20T06:34:05;6.57;;;5.28;;
26413;SDS011;14108;53.668;10.288;2022-11-20T06:36:32;8.77;;;6.22;;
26413;SDS011;14108;53.668;10.288;2022-11-20T06:39:00;9.32;;;5.62;;
26413;SDS011;14108;53.668;10.288;2022-11-20T06:41:29;9.13;;;6.03;;
26413;SDS011;14108;53.668;10.288;2022-11-20T06:43:56;8.20;;;4.70;;
26413;SDS011;14108;53.668;10.288;2022-11-20T06:46:23;10.93;;;6.37;;
26413;SDS011;14108;53.668;10.288;2022-11-20T06:48:51;7.72;;;5.72;;
26413;SDS011;14108;53.668;10.288;2022-11-20T06:51:18;8.73;;;5.97;;
26413;SDS011;14108;53.668;10.288;2022-11-20T06:53:46;7.15;;;5.32;;
26413;SDS011;14108;53.668;10.288;2022-11-20T06:56:14;10.88;;;6.05;;
26413;SDS011;14108;53.668;10.288;2022-11-20T06:58:41;8.23;;;6.70;;
26413;SDS011;14108;53.668;10.288;2022-11-20T07:01:10;13.95;;;7.50;;
26413;SDS011;14108;53.668;10.288;2022-11-20T07:03:38;10.68;;;6.82;;
26413;SDS011;14108;53.668;10.288;2022-11-20T07:06:06;9.45;;;6.30;;
26413;SDS011;14108;53.668;10.288;2022-11-20T07:08:34;8.73;;;6.32;;
26413;SDS011;14108;53.668;10.288;2022-11-20T07:11:03;11.30;;;7.37;;
26413;SDS011;14108;53.668;10.288;2022-11-20T07:13:32;10.07;;;5.82;;
26413;SDS011;14108;53.668;10.288;2022-11-20T07:16:00;10.07;;;6.10;;
26413;SDS011;14108;53.668;10.288;2022-11-20T07:18:28;9.98;;;6.53;;
26413;SDS011;14108;53.668;10.288;2022-11-20T07:20:55;9.60;;;7.12;;
26413;SDS011;14108;53.668;10.288;2022-11-20T07:23:25;9.95;;;7.15;;
26413;SDS011;14108;53.668;10.288;2022-11-20T07:25:52;7.82;;;6.50;;
26413;SDS011;14108;53.668;10.288;2022-11-20T07:28:19;8.57;;;6.95;;
26413;SDS011;14108;53.668;10.288;2022-11-20T07:30:49;9.40;;;7.40;;
26413;SDS011;14108;53.668;10.288;2022-11-20T07:33:17;15.20;;;8.57;;
26413;SDS011;14108;53.668;10.288;2022-11-20T07:35:44;10.55;;;7.93;;
26413;SDS011;14108;53.668;10.288;2022-11-20T07:38:11;10.73;;;8.32;;
26413;SDS011;14108;53.668;10.288;2022-11-20T07:40:39;11.02;;;7.85;;
26413;SDS011;14108;53.668;10.288;2022-11-20T07:43:06;10.15;;;7.80;;
26413;SDS011;14108;53.668;10.288;2022-11-20T07:45:33;11.80;;;7.60;;
26413;SDS011;14108;53.668;10.288;2022-11-20T07:48:00;12.37;;;7.82;;
26413;SDS011;14108;53.668;10.288;2022-11-20T07:50:28;12.18;;;7.45;;
26413;SDS011;14108;53.668;10.288;2022-11-20T07:53:00;9.60;;;6.80;;
26413;SDS011;14108;53.668;10.288;2022-11-20T07:55:28;8.95;;;6.53;;
26413;SDS011;14108;53.668;10.288;2022-11-20T07:57:55;9.85;;;6.75;;
26413;SDS011;14108;53.668;10.288;2022-11-20T08:00:24;11.43;;;7.22;;
26413;SDS011;14108;53.668;10.288;2022-11-20T08:02:51;10.27;;;7.87;;
26413;SDS011;14108;53.668;10.288;2022-11-20T08:05:19;10.38;;;6.70;;
26413;SDS011;14108;53.668;10.288;2022-11-20T08:07:46;11.60;;;7.75;;
26413;SDS011;14108;53.668;10.288;2022-11-20T08:10:14;12.05;;;7.72;;
26413;SDS011;14108;53.668;10.288;2022-11-20T08:12:45;10.02;;;7.03;;
26413;SDS011;14108;53.668;10.288;2022-11-20T08:15:31;15.23;;;8.50;;
26413;SDS011;14108;53.668;10.288;2022-11-20T08:18:02;12.40;;;7.50;;
26413;SDS011;14108;53.668;10.288;2022-11-20T08:20:30;13.13;;;8.00;;
26413;SDS011;14108;53.668;10.288;2022-11-20T08:22:58;10.25;;;7.28;;
26413;SDS011;14108;53.668;10.288;2022-11-20T08:25:26;9.88;;;7.10;;
26413;SDS011;14108;53.668;10.288;2022-11-20T08:27:54;14.05;;;8.30;;
26413;SDS011;14108;53.668;10.288;2022-11-20T08:30:24;12.23;;;7.18;;
26413;SDS011;14108;53.668;10.288;2022-11-20T08:32:52;12.50;;;7.95;;
26413;SDS011;14108;53.668;10.288;2022-11-20T08:35:20;10.55;;;6.75;;
26413;SDS011;14108;53.668;10.288;2022-11-20T08:37:47;10.75;;;6.87;;
26413;SDS011;14108;53.668;10.288;2022-11-20T08:40:15;11.23;;;6.55;;
26413;SDS011;14108;53.668;10.288;2022-11-20T08:42:46;12.40;;;6.97;;
26413;SDS011;14108;53.668;10.288;2022-11-20T08:45:14;9.77;;;7.25;;
26413;SDS011;14108;53.668;10.288;2022-11-20T08:47:42;16.42;;;9.98;;
26413;SDS011;14108;53.668;10.288;2022-11-20T08:50:10;10.38;;;7.85;;
26413;SDS011;14108;53.668;10.288;2022-11-20T08:52:39;9.88;;;7.28;;
26413;SDS011;14108;53.668;10.288;2022-11-20T08:55:09;11.07;;;7.43;;
26413;SDS011;14108;53.668;10.288;2022-11-20T08:57:37;9.82;;;6.50;;
26413;SDS011;14108;53.668;10.288;2022-11-20T09:00:06;11.40;;;6.68;;
26413;SDS011;14108;53.668;10.288;2022-11-20T09:02:36;11.05;;;7.40;;
26413;SDS011;14108;53.668;10.288;2022-11-20T09:05:04;9.15;;;6.90;;
26413;SDS011;14108;53.668;10.288;2022-11-20T09:07:32;9.68;;;6.60;;
26413;SDS011;14108;53.668;10.288;2022-11-20T09:09:59;12.52;;;7.85;;
26413;SDS011;14108;53.668;10.288;2022-11-20T09:12:26;9.98;;;7.18;;
26413;SDS011;14108;53.668;10.288;2022-11-20T09:14:53;7.97;;;6.50;;
26413;SDS011;14108;53.668;10.288;2022-11-20T09:17:20;9.95;;;6.35;;
26413;SDS011;14108;53.668;10.288;2022-11-20T09:19:47;10.00;;;6.35;;
26413;SDS011;14108;53.668;10.288;2022-11-20T09:22:14;8.45;;;6.82;;
26413;SDS011;14108;53.668;10.288;2022-11-20T09:24:41;8.32;;;6.07;;
26413;SDS011;14108;53.668;10.288;2022-11-20T09:27:09;10.27;;;6.43;;
26413;SDS011;14108;53.668;10.288;2022-11-20T09:29:36;7.68;;;5.07;;
26413;SDS011;14108;53.668;10.288;2022-11-20T09:32:03;8.05;;;6.03;;
26413;SDS011;14108;53.668;10.288;2022-11-20T09:34:31;8.20;;;5.53;;
26413;SDS011;14108;53.668;10.288;2022-11-20T09:36:58;11.88;;;6.75;;
26413;SDS011;14108;53.668;10.288;2022-11-20T09:39:25;8.98;;;6.15;;
26413;SDS011;14108;53.668;10.288;2022-11-20T09:41:59;9.13;;;5.93;;
26413;SDS011;14108;53.668;10.288;2022-11-20T09:45:00;7.28;;;5.47;;
26413;SDS011;14108;53.668;10.288;2022-11-20T09:47:42;14.18;;;6.32;;
26413;SDS011;14108;53.668;10.288;2022-11-20T09:50:24;9.30;;;5.00;;
26413;SDS011;14108;53.668;10.288;2022-11-20T09:52:59;7.70;;;6.10;;
26413;SDS011;14108;53.668;10.288;2022-11-20T09:55:46;9.80;;;5.62;;
26413;SDS011;14108;53.668;10.288;2022-11-20T09:58:15;6.95;;;5.32;;
26413;SDS011;14108;53.668;10.288;2022-11-20T10:00:51;9.13;;;5.90;;
26413;SDS011;14108;53.668;10.288;2022-11-20T10:03:33;7.87;;;5.70;;
26413;SDS011;14108;53.668;10.288;2022-11-20T10:06:08;7.22;;;5.47;;
26413;SDS011;14108;53.668;10.288;2022-11-20T10:08:48;6.72;;;5.40;;
26413;SDS011;14108;53.668;10.288;2022-11-20T10:11:24;7.80;;;5.50;;
26413;SDS011;14108;53.668;10.288;2022-11-20T10:14:05;6.00;;;4.97;;
26413;SDS011;14108;53.668;10.288;2022-11-20T10:16:43;6.03;;;4.82;;
26413;SDS011;14108;53.668;10.288;2022-11-20T10:19:23;5.65;;;4.60;;
26413;SDS011;14108;53.668;10.288;2022-11-20T10:22:06;7.68;;;5.90;;
26413;SDS011;14108;53.668;10.288;2022-11-20T10:24:46;6.75;;;5.28;;
26413;SDS011;14108;53.668;10.288;2022-11-20T10:27:29;8.20;;;5.55;;
26413;SDS011;14108;53.668;10.288;2022-11-20T10:30:18;7.93;;;5.10;;
26413;SDS011;14108;53.668;10.288;2022-11-20T10:32:51;6.97;;;4.57;;
26413;SDS011;14108;53.668;10.288;2022-11-20T10:35:21;7.07;;;5.35;;
26413;SDS011;14108;53.668;10.288;2022-11-20T10:37:53;6.50;;;4.95;;
26413;SDS011;14108;53.668;10.288;2022-11-20T10:42:55;8.43;;;5.25;;
26413;SDS011;14108;53.668;10.288;2022-11-20T10:45:32;6.47;;;4.95;;
26413;SDS011;14108;53.668;10.288;2022-11-20T10:48:12;6.60;;;5.07;;
26413;SDS011;14108;53.668;10.288;2022-11-20T10:50:44;7.80;;;5.10;;
26413;SDS011;14108;53.668;10.288;2022-11-20T10:53:23;7.35;;;5.47;;
26413;SDS011;14108;53.668;10.288;2022-11-20T10:56:07;6.90;;;5.20;;
26413;SDS011;14108;53.668;10.288;2022-11-20T10:58:43;7.00;;;4.87;;
26413;SDS011;14108;53.668;10.288;2022-11-20T11:01:16;8.57;;;5.43;;
26413;SDS011;14108;53.668;10.288;2022-11-20T11:03:46;6.37;;;5.07;;
26413;SDS011;14108;53.668;10.288;2022-11-20T11:06:19;5.68;;;4.90;;
26413;SDS011;14108;53.668;10.288;2022-11-20T11:08:55;6.87;;;5.18;;
26413;SDS011;14108;53.668;10.288;2022-11-20T11:11:26;6.90;;;4.53;;
26413;SDS011;14108;53.668;10.288;2022-11-20T11:16:48;5.00;;;4.50;;
26413;SDS011;14108;53.668;10.288;2022-11-20T11:19:16;7.03;;;4.43;;
26413;SDS011;14108;53.668;10.288;2022-11-20T11:21:46;6.85;;;4.37;;
26413;SDS011;14108;53.668;10.288;2022-11-20T11:24:20;8.43;;;5.12;;
26413;SDS011;14108;53.668;10.288;2022-11-20T11:26:53;6.10;;;4.60;;
26413;SDS011;14108;53.668;10.288;2022-11-20T11:29:23;6.47;;;4.65;;
26413;SDS011;14108;53.668;10.288;2022-11-20T11:32:03;6.20;;;4.78;;
26413;SDS011;14108;53.668;10.288;2022-11-20T11:34:31;6.93;;;4.22;;
26413;SDS011;14108;53.668;10.288;2022-11-20T11:36:59;5.95;;;4.62;;
26413;SDS011;14108;53.668;10.288;2022-11-20T11:39:29;6.85;;;5.10;;
26413;SDS011;14108;53.668;10.288;2022-11-20T11:41:58;5.03;;;3.85;;
26413;SDS011;14108;53.668;10.288;2022-11-20T11:44:28;4.40;;;3.78;;
26413;SDS011;14108;53.668;10.288;2022-11-20T11:47:20;6.00;;;4.12;;
26413;SDS011;14108;53.668;10.288;2022-11-20T11:50:00;4.22;;;3.80;;
26413;SDS011;14108;53.668;10.288;2022-11-20T11:52:41;5.28;;;3.92;;
26413;SDS011;14108;53.668;10.288;2022-11-20T11:55:12;5.00;;;3.80;;
26413;SDS011;14108;53.668;10.288;2022-11-20T11:57:45;7.12;;;6.43;;
26413;SDS011;14108;53.668;10.288;2022-11-20T12:00:18;8.85;;;6.60;;
26413;SDS011;14108;53.668;10.288;2022-11-20T12:02:52;6.90;;;4.85;;
26413;SDS011;14108;53.668;10.288;2022-11-20T12:05:26;8.60;;;6.30;;
26413;SDS011;14108;53.668;10.288;2022-11-20T12:07:57;8.15;;;5.20;;
26413;SDS011;14108;53.668;10.288;2022-11-20T12:10:34;7.40;;;4.55;;
26413;SDS011;14108;53.668;10.288;2022-11-20T12:13:10;6.55;;;4.40;;
26413;SDS011;14108;53.668;10.288;2022-11-20T12:15:47;6.30;;;4.95;;
26413;SDS011;14108;53.668;10.288;2022-11-20T12:18:15;5.20;;;4.70;;
26413;SDS011;14108;53.668;10.288;2022-11-20T12:20:48;5.72;;;4.45;;
26413;SDS011;14108;53.668;10.288;2022-11-20T12:23:28;5.12;;;3.95;;
26413;SDS011;14108;53.668;10.288;2022-11-20T12:26:05;7.62;;;5.47;;
26413;SDS011;14108;53.668;10.288;2022-11-20T12:28:50;5.05;;;4.00;;
26413;SDS011;14108;53.668;10.288;2022-11-20T12:31:29;5.82;;;4.20;;
26413;SDS011;14108;53.668;10.288;2022-11-20T12:37:22;5.90;;;4.18;;
26413;SDS011;14108;53.668;10.288;2022-11-20T12:40:00;4.30;;;3.47;;
26413;SDS011;14108;53.668;10.288;2022-11-20T12:42:49;5.97;;;3.85;;
26413;SDS011;14108;53.668;10.288;2022-11-20T12:45:45;3.85;;;3.37;;
26413;SDS011;14108;53.668;10.288;2022-11-20T12:48:32;5.55;;;3.72;;
26413;SDS011;14108;53.668;10.288;2022-11-20T12:51:48;6.32;;;4.68;;
26413;SDS011;14108;53.668;10.288;2022-11-20T12:57:31;5.97;;;4.45;;
26413;SDS011;14108;53.668;10.288;2022-11-20T13:00:08;5.22;;;4.28;;
26413;SDS011;14108;53.668;10.288;2022-11-20T13:02:44;4.22;;;3.83;;
26413;SDS011;14108;53.668;10.288;2022-11-20T13:05:29;8.38;;;5.53;;
26413;SDS011;14108;53.668;10.288;2022-11-20T13:08:02;10.73;;;6.32;;
26413;SDS011;14108;53.668;10.288;2022-11-20T13:10:35;12.75;;;7.57;;
26413;SDS011;14108;53.668;10.288;2022-11-20T13:13:11;10.82;;;6.55;;
26413;SDS011;14108;53.668;10.288;2022-11-20T13:15:47;10.30;;;5.28;;
26413;SDS011;14108;53.668;10.288;2022-11-20T13:18:18;7.95;;;5.35;;
26413;SDS011;14108;53.668;10.288;2022-11-20T13:20:48;8.35;;;5.43;;
26413;SDS011;14108;53.668;10.288;2022-11-20T13:23:26;6.10;;;4.82;;
26413;SDS011;14108;53.668;10.288;2022-11-20T13:26:03;10.95;;;5.82;;
26413;SDS011;14108;53.668;10.288;2022-11-20T13:28:39;11.85;;;4.30;;
26413;SDS011;14108;53.668;10.288;2022-11-20T13:31:10;8.23;;;4.35;;
26413;SDS011;14108;53.668;10.288;2022-11-20T13:33:56;6.00;;;4.55;;
26413;SDS011;14108;53.668;10.288;2022-11-20T13:36:25;4.60;;;4.05;;
26413;SDS011;14108;53.668;10.288;2022-11-20T13:38:54;5.57;;;3.80;;
26413;SDS011;14108;53.668;10.288;2022-11-20T13:41:26;4.37;;;3.15;;
26413;SDS011;14108;53.668;10.288;2022-11-20T13:44:09;5.10;;;3.47;;
26413;SDS011;14108;53.668;10.288;2022-11-20T13:46:40;6.20;;;4.45;;
26413;SDS011;14108;53.668;10.288;2022-11-20T13:49:10;4.57;;;3.65;;
26413;SDS011;14108;53.668;10.288;2022-11-20T13:51:44;3.78;;;3.10;;
26413;SDS011;14108;53.668;10.288;2022-11-20T13:57:34;5.85;;;3.60;;
26413;SDS011;14108;53.668;10.288;2022-11-20T14:00:23;5.75;;;4.05;;
26413;SDS011;14108;53.668;10.288;2022-11-20T14:02:58;4.85;;;3.62;;
26413;SDS011;14108;53.668;10.288;2022-11-20T14:05:34;5.70;;;4.85;;
26413;SDS011;14108;53.668;10.288;2022-11-20T14:08:04;10.45;;;6.97;;
26413;SDS011;14108;53.668;10.288;2022-11-20T14:10:43;12.15;;;5.97;;
26413;SDS011;14108;53.668;10.288;2022-11-20T14:13:12;9.32;;;6.05;;
26413;SDS011;14108;53.668;10.288;2022-11-20T14:15:56;15.07;;;5.32;;
26413;SDS011;14108;53.668;10.288;2022-11-20T14:18:25;8.52;;;6.05;;
26413;SDS011;14108;53.668;10.288;2022-11-20T14:20:52;7.65;;;6.07;;
26413;SDS011;14108;53.668;10.288;2022-11-20T14:23:26;7.65;;;5.57;;
26413;SDS011;14108;53.668;10.288;2022-11-20T14:25:54;7.12;;;4.93;;
26413;SDS011;14108;53.668;10.288;2022-11-20T14:28:24;8.48;;;5.30;;
26413;SDS011;14108;53.668;10.288;2022-11-20T14:30:53;10.93;;;8.20;;
26413;SDS011;14108;53.668;10.288;2022-11-20T14:33:21;12.85;;;8.00;;
26413;SDS011;14108;53.668;10.288;2022-11-20T14:35:51;9.10;;;5.80;;
26413;SDS011;14108;53.668;10.288;2022-11-20T14:38:21;8.25;;;5.57;;
26413;SDS011;14108;53.668;10.288;2022-11-20T14:40:51;8.15;;;6.05;;
26413;SDS011;14108;53.668;10.288;2022-11-20T14:43:19;9.20;;;6.30;;
26413;SDS011;14108;53.668;10.288;2022-11-20T14:45:51;6.82;;;5.35;;
26413;SDS011;14108;53.668;10.288;2022-11-20T14:48:25;8.30;;;5.00;;
26413;SDS011;14108;53.668;10.288;2022-11-20T14:50:56;6.05;;;4.30;;
26413;SDS011;14108;53.668;10.288;2022-11-20T14:53:24;6.05;;;4.50;;
26413;SDS011;14108;53.668;10.288;2022-11-20T14:55:55;7.97;;;4.90;;
26413;SDS011;14108;53.668;10.288;2022-11-20T14:58:25;7.03;;;4.43;;
26413;SDS011;14108;53.668;10.288;2022-11-20T15:00:54;5.65;;;4.10;;
26413;SDS011;14108;53.668;10.288;2022-11-20T15:03:30;6.35;;;4.25;;
26413;SDS011;14108;53.668;10.288;2022-11-20T15:05:58;8.20;;;5.37;;
26413;SDS011;14108;53.668;10.288;2022-11-20T15:08:26;7.18;;;5.72;;
26413;SDS011;14108;53.668;10.288;2022-11-20T15:10:54;8.93;;;5.50;;
26413;SDS011;14108;53.668;10.288;2022-11-20T15:13:25;14.70;;;9.05;;